Time;durP1;ratioP1;P1;durP2;ratioP2;P2;SDS_P1;SDS_P2;PMS_P1;PMS_P2;Temp;Humidity;BMP_temperature;BMP_pressure;BME280_temperature;BME280_humidity;BME280_pressure;Samples;Min_cycle;Max_cycle;Signal;HPM_P1;HPM_P2
2023/04/18 03:02:12;;;;;;;1.35;1.23;;;17.50;53.50;;;;;;5130989;22;48015;-60
2023/04/18 03:04:37;;;;;;;1.52;1.25;;;17.50;53.50;;;;;;4976097;28;45330;-60
2023/04/18 03:07:03;;;;;;;1.42;1.00;;;17.50;53.50;;;;;;4970746;28;45265;-59
2023/04/18 03:09:29;;;;;;;1.20;1.10;;;17.50;54.10;;;;;;4941754;28;45476;-59
2023/04/18 03:11:54;;;;;;;3.22;1.20;;;17.50;53.50;;;;;;4983987;28;45510;-60
2023/04/18 03:14:20;;;;;;;1.10;1.00;;;17.50;53.50;;;;;;4980404;28;45907;-60
2023/04/18 03:16:45;;;;;;;1.70;1.25;;;17.50;53.50;;;;;;4974291;28;45348;-61
2023/04/18 03:19:11;;;;;;;1.10;1.00;;;17.50;53.50;;;;;;4989315;28;45490;-58
2023/04/18 03:21:36;;;;;;;1.13;1.02;;;17.50;53.50;;;;;;4980034;28;45353;-58
2023/04/18 03:24:02;;;;;;;1.40;1.00;;;17.50;53.50;;;;;;4990960;28;45521;-60
2023/04/18 03:26:27;;;;;;;1.15;1.00;;;17.50;53.50;;;;;;4971539;28;45427;-59
2023/04/18 03:28:53;;;;;;;0.98;0.90;;;17.40;53.40;;;;;;4998103;28;45043;-59
2023/04/18 03:31:18;;;;;;;0.75;0.75;;;17.50;53.50;;;;;;4972598;28;45544;-58
2023/04/18 03:33:44;;;;;;;1.00;0.90;;;17.40;53.40;;;;;;4972988;28;46149;-58
2023/04/18 03:36:11;;;;;;;1.25;0.85;;;17.40;53.40;;;;;;4990483;28;45312;-58
2023/04/18 03:38:39;;;;;;;1.02;0.90;;;17.40;53.40;;;;;;4981425;28;45390;-61
2023/04/18 03:41:04;;;;;;;1.23;1.00;;;17.40;53.40;;;;;;4984166;28;45241;-59
2023/04/18 03:43:30;;;;;;;0.98;0.95;;;17.40;53.50;;;;;;4994472;28;45192;-60
2023/04/18 03:45:55;;;;;;;1.20;1.10;;;17.50;53.50;;;;;;4968891;28;45556;-59
2023/04/18 03:48:21;;;;;;;1.42;1.00;;;17.50;53.60;;;;;;4975795;28;45383;-60
2023/04/18 03:50:46;;;;;;;1.08;0.98;;;17.40;53.50;;;;;;4992037;28;45167;-59
2023/04/18 03:53:13;;;;;;;1.10;1.00;;;17.40;53.50;;;;;;4970135;28;46107;-59
2023/04/18 03:55:38;;;;;;;1.20;1.00;;;17.40;53.40;;;;;;4991222;28;45201;-58
2023/04/18 03:58:04;;;;;;;1.70;1.13;;;17.40;53.40;;;;;;4990809;28;45233;-59
2023/04/18 04:00:29;;;;;;;1.13;0.98;;;17.40;53.50;;;;;;4981381;28;45419;-60
2023/04/18 04:02:55;;;;;;;1.30;1.20;;;17.40;53.40;;;;;;4981866;28;45323;-60
2023/04/18 04:05:20;;;;;;;1.20;1.10;;;17.40;53.40;;;;;;4969788;28;45333;-59
2023/04/18 04:07:46;;;;;;;1.25;1.00;;;17.40;53.50;;;;;;5001980;28;44795;-59
2023/04/18 04:10:12;;;;;;;1.35;1.02;;;17.40;53.50;;;;;;4965608;28;45377;-59
2023/04/18 04:12:37;;;;;;;1.17;1.00;;;17.40;53.50;;;;;;4978204;28;45163;-60
2023/04/18 04:15:06;;;;;;;1.02;0.90;;;17.40;53.50;;;;;;4986243;28;45297;-59
2023/04/18 04:17:32;;;;;;;1.13;0.90;;;17.40;53.50;;;;;;4969808;28;45599;-59
2023/04/18 04:19:57;;;;;;;1.17;1.08;;;17.40;53.50;;;;;;4997618;28;45180;-59
2023/04/18 04:22:23;;;;;;;1.30;1.20;;;17.40;53.50;;;;;;4990910;28;45922;-61
2023/04/18 04:24:48;;;;;;;1.25;1.15;;;17.40;53.40;;;;;;4983500;28;45255;-60
2023/04/18 04:27:14;;;;;;;1.15;1.05;;;17.40;53.50;;;;;;4985874;28;45627;-61
2023/04/18 04:29:40;;;;;;;2.15;1.20;;;17.40;53.50;;;;;;4997916;28;45567;-60
2023/04/18 04:32:06;;;;;;;2.08;1.20;;;17.30;53.50;;;;;;4971114;28;46220;-60
2023/04/18 04:34:33;;;;;;;1.83;1.00;;;17.30;53.50;;;;;;4989080;28;44744;-59
2023/04/18 04:36:59;;;;;;;1.30;1.10;;;17.30;53.50;;;;;;4981237;28;45309;-60
2023/04/18 04:39:25;;;;;;;1.10;0.95;;;17.30;53.50;;;;;;4994443;28;44710;-60
2023/04/18 04:41:52;;;;;;;0.98;0.90;;;17.30;53.50;;;;;;4994419;28;45929;-60
2023/04/18 04:44:18;;;;;;;1.30;1.13;;;17.30;53.50;;;;;;4993741;28;45203;-59
2023/04/18 04:46:43;;;;;;;0.93;0.93;;;17.30;53.50;;;;;;4987320;28;45841;-60
2023/04/18 04:49:12;;;;;;;1.30;1.20;;;17.30;53.50;;;;;;4982318;28;45909;-59
2023/04/18 04:51:38;;;;;;;1.10;1.00;;;17.30;53.50;;;;;;4989339;28;46125;-59
2023/04/18 04:54:04;;;;;;;1.20;1.10;;;17.30;53.50;;;;;;4979934;28;45589;-59
2023/04/18 04:56:30;;;;;;;1.50;1.35;;;17.30;53.50;;;;;;4989615;28;44796;-59
2023/04/18 04:58:56;;;;;;;1.45;1.13;;;17.20;53.50;;;;;;4971197;28;44849;-60
2023/04/18 05:01:21;;;;;;;1.63;1.10;;;17.20;53.50;;;;;;4983866;28;46338;-59
2023/04/18 05:03:48;;;;;;;0.85;0.80;;;17.20;53.50;;;;;;4994832;28;44819;-59
2023/04/18 05:06:19;;;;;;;1.38;1.23;;;17.30;53.50;;;;;;4985880;28;44925;-60
2023/04/18 05:08:47;;;;;;;0.95;0.85;;;17.30;53.50;;;;;;4970625;28;44990;-60
2023/04/18 05:11:13;;;;;;;1.10;0.95;;;17.30;53.50;;;;;;4985962;28;45202;-60
2023/04/18 05:13:38;;;;;;;1.13;1.02;;;17.20;53.50;;;;;;4998782;28;45240;-60
2023/04/18 05:16:04;;;;;;;1.25;1.00;;;17.30;53.50;;;;;;4983280;28;45525;-60
2023/04/18 05:18:30;;;;;;;1.20;1.10;;;17.30;53.50;;;;;;4993362;28;45392;-60
2023/04/18 05:20:56;;;;;;;1.00;0.93;;;17.20;53.50;;;;;;4982118;28;46239;-61
2023/04/18 05:23:21;;;;;;;0.88;0.88;;;17.30;53.50;;;;;;4996555;28;45571;-58
2023/04/18 05:25:47;;;;;;;1.30;1.20;;;17.30;53.50;;;;;;4989015;28;45483;-59
2023/04/18 05:28:12;;;;;;;1.17;1.08;;;17.30;53.50;;;;;;4990754;28;45500;-58
2023/04/18 05:30:38;;;;;;;1.13;1.00;;;17.30;53.50;;;;;;4974858;28;46065;-60
2023/04/18 05:33:04;;;;;;;2.45;1.02;;;17.20;53.40;;;;;;4993361;28;44651;-60
2023/04/18 05:35:30;;;;;;;1.50;1.00;;;17.20;53.50;;;;;;4991153;28;44721;-60
2023/04/18 05:37:56;;;;;;;1.10;1.00;;;17.30;53.50;;;;;;4998369;28;45515;-60
2023/04/18 05:40:21;;;;;;;1.23;1.00;;;17.20;53.40;;;;;;4974025;28;46004;-59
2023/04/18 05:42:47;;;;;;;1.20;1.10;;;17.20;53.40;;;;;;4990384;28;51103;-60
2023/04/18 05:45:15;;;;;;;1.13;1.02;;;17.20;53.50;;;;;;4993535;28;46214;-59
2023/04/18 05:47:41;;;;;;;2.60;1.00;;;17.30;53.50;;;;;;4992753;28;45388;-59
2023/04/18 05:50:07;;;;;;;1.00;0.90;;;17.20;53.50;;;;;;4992593;28;45479;-60
2023/04/18 05:52:33;;;;;;;1.15;1.05;;;17.20;53.50;;;;;;4990388;28;45178;-59
2023/04/18 05:54:58;;;;;;;3.28;2.53;;;17.20;53.50;;;;;;4997968;28;44765;-58
2023/04/18 05:57:24;;;;;;;7.70;4.35;;;17.20;52.60;;;;;;4996936;28;44823;-60
2023/04/18 05:59:49;;;;;;;9.10;4.78;;;17.10;51.80;;;;;;5000483;28;45192;-58
2023/04/18 06:02:15;;;;;;;8.82;5.55;;;17.00;51.50;;;;;;4984848;28;45261;-58
2023/04/18 06:04:41;;;;;;;6.20;4.70;;;16.90;51.50;;;;;;4993541;28;45591;-58
2023/04/18 06:07:06;;;;;;;6.22;4.75;;;16.90;51.70;;;;;;4993254;28;45547;-58
2023/04/18 06:09:32;;;;;;;6.80;3.88;;;17.00;52.20;;;;;;4994528;28;45070;-59
2023/04/18 06:11:57;;;;;;;5.57;4.05;;;17.20;51.90;;;;;;4993280;28;44716;-56
2023/04/18 06:14:23;;;;;;;5.28;3.70;;;17.50;51.60;;;;;;4992800;28;45239;-57
2023/04/18 06:16:49;;;;;;;4.82;3.65;;;17.60;51.30;;;;;;4993310;28;45463;-58
2023/04/18 06:19:14;;;;;;;4.30;3.33;;;17.90;51.00;;;;;;4998741;28;46076;-57
2023/04/18 06:21:41;;;;;;;4.13;3.08;;;18.10;50.70;;;;;;4993122;28;45225;-55
2023/04/18 06:24:07;;;;;;;3.70;2.80;;;18.30;50.70;;;;;;4992332;28;44901;-55
2023/04/18 06:26:33;;;;;;;3.35;2.67;;;18.40;50.30;;;;;;4991835;28;45322;-60
2023/04/18 06:28:58;;;;;;;3.35;2.70;;;18.60;50.20;;;;;;4982952;28;45459;-61
2023/04/18 06:31:24;;;;;;;3.72;2.58;;;18.80;50.00;;;;;;4984618;28;45284;-61
2023/04/18 06:33:49;;;;;;;2.90;2.60;;;18.90;50.00;;;;;;4993087;28;45397;-60
2023/04/18 06:36:15;;;;;;;;;;;19.00;49.90;;;;;;4984602;28;45198;-61
2023/04/18 06:38:40;;;;;;;;;;;19.20;49.40;;;;;;4998017;28;45932;-61
2023/04/18 06:41:06;;;;;;;;;;;19.30;49.40;;;;;;4988869;28;45744;-57
2023/04/18 06:43:31;;;;;;;;;;;19.50;49.30;;;;;;5000527;28;45840;-58
2023/04/18 06:45:57;;;;;;;;;;;19.60;49.20;;;;;;4989499;28;45706;-57
2023/04/18 06:48:22;;;;;;;;;;;19.70;49.10;;;;;;4983367;28;45915;-55
2023/04/18 06:50:48;;;;;;;;;;;19.80;49.00;;;;;;4995788;28;45509;-58
2023/04/18 06:53:14;;;;;;;;;;;19.80;48.80;;;;;;5000577;28;45225;-60
2023/04/18 06:55:39;;;;;;;;;;;19.90;48.80;;;;;;4986034;28;45586;-58
2023/04/18 06:58:05;;;;;;;;;;;20.00;48.90;;;;;;4963050;28;46357;-61
2023/04/18 07:00:30;;;;;;;;;;;20.10;48.90;;;;;;4988097;28;45300;-60
2023/04/18 07:02:56;;;;;;;;;;;20.10;48.80;;;;;;4988172;28;45553;-58
2023/04/18 07:05:21;;;;;;;;;;;20.30;48.80;;;;;;4988864;28;45836;-60
2023/04/18 07:07:47;;;;;;;;;;;20.30;48.70;;;;;;4995053;28;45285;-60
2023/04/18 07:10:12;;;;;;;;;;;20.40;48.70;;;;;;4989833;28;45768;-57
2023/04/18 07:12:38;;;;;;;;;;;20.50;48.70;;;;;;4998509;28;46741;-60
2023/04/18 07:15:03;;;;;;;;;;;20.50;48.60;;;;;;4995658;28;44641;-62
2023/04/18 07:17:29;;;;;;;;;;;20.60;48.60;;;;;;4956285;28;45516;-61
2023/04/18 07:19:54;;;;;;;;;;;20.70;48.50;;;;;;4997380;28;45538;-61
2023/04/18 07:22:20;;;;;;;;;;;20.80;48.50;;;;;;4994053;28;45328;-59
2023/04/18 07:24:45;;;;;;;;;;;20.80;48.40;;;;;;4988108;28;44852;-58
2023/04/18 07:27:11;;;;;;;;;;;20.90;48.40;;;;;;4991101;28;46078;-59
2023/04/18 07:29:36;;;;;;;;;;;21.00;48.30;;;;;;5000033;28;45070;-60
2023/04/18 07:32:02;;;;;;;;;;;21.10;48.30;;;;;;4950614;28;45630;-61
2023/04/18 07:34:28;;;;;;;;;;;21.10;48.20;;;;;;4994263;28;45650;-58
2023/04/18 07:36:56;;;;;;;;;;;21.20;48.20;;;;;;4993069;28;47419;-58
2023/04/18 07:39:22;;;;;;;;;;;21.20;48.10;;;;;;4971938;28;45385;-57
2023/04/18 07:41:47;;;;;;;;;;;21.30;48.10;;;;;;4995580;28;45183;-59
2023/04/18 07:44:13;;;;;;;;;;;21.40;48.00;;;;;;4999839;28;45401;-60
2023/04/18 07:46:38;;;;;;;;;;;21.50;48.00;;;;;;4977887;28;46055;-60
2023/04/18 07:49:04;;;;;;;;;;;21.60;48.00;;;;;;4994630;28;45262;-60
2023/04/18 07:51:33;;;;;;;;;;;21.60;47.90;;;;;;4992469;28;46337;-60
2023/04/18 07:53:59;;;;;;;;;;;21.70;47.80;;;;;;4997015;28;45401;-58
2023/04/18 07:56:25;;;;;;;;;;;21.70;47.80;;;;;;4993449;28;46117;-61
2023/04/18 07:58:51;;;;;;;;;;;21.80;47.70;;;;;;5007742;28;45322;-60
2023/04/18 08:01:17;;;;;;;;;;;21.90;47.60;;;;;;4988463;28;45608;-60
2023/04/18 08:03:43;;;;;;;;;;;22.00;47.60;;;;;;4990853;28;45812;-59
2023/04/18 08:06:08;;;;;;;;;;;22.00;47.50;;;;;;4989656;28;46172;-62
2023/04/18 08:08:34;;;;;;;;;;;22.10;47.50;;;;;;4975358;28;45281;-61
2023/04/18 08:10:59;;;;;;;;;;;22.10;47.50;;;;;;4990812;28;45178;-62
2023/04/18 08:13:25;;;;;;;;;;;22.10;47.50;;;;;;4998930;28;45327;-62
2023/04/18 08:15:50;;;;;;;;;;;22.10;47.50;;;;;;4989611;28;47184;-59
2023/04/18 08:18:16;;;;;;;;;;;22.20;47.50;;;;;;4991476;28;44673;-63
2023/04/18 08:20:41;;;;;;;;;;;22.20;47.50;;;;;;4989347;28;45013;-62
2023/04/18 08:23:07;;;;;;;;;;;22.20;47.40;;;;;;4997581;28;44665;-62
2023/04/18 08:25:33;;;;;;;;;;;22.30;47.50;;;;;;4992529;28;46541;-62
2023/04/18 08:27:58;;;;;;;;;;;22.30;47.40;;;;;;4978209;28;45558;-61
2023/04/18 08:30:24;;;;;;;;;;;22.40;47.40;;;;;;4992340;28;45191;-61
2023/04/18 08:32:49;;;;;;;;;;;22.40;47.40;;;;;;4979041;28;45000;-60
2023/04/18 08:35:15;;;;;;;;;;;22.40;47.30;;;;;;4993598;28;46249;-60
2023/04/18 08:37:40;;;;;;;;;;;22.50;47.30;;;;;;4992478;28;45141;-63
2023/04/18 08:40:09;;;;;;;;;;;22.50;47.30;;;;;;4971217;28;45236;-62
2023/04/18 08:42:35;;;;;;;;;;;22.60;47.30;;;;;;4991319;28;45926;-61
2023/04/18 08:45:00;;;;;;;;;;;22.70;47.30;;;;;;4997236;28;45948;-61
2023/04/18 08:47:29;;;;;;;;;;;22.70;47.20;;;;;;4981752;28;45076;-62
2023/04/18 08:49:56;;;;;;;;;;;22.80;47.10;;;;;;4982939;28;45530;-62
2023/04/18 08:52:21;;;;;;;;;;;22.80;47.30;;;;;;4995234;28;44923;-63
2023/04/18 08:54:47;;;;;;;;;;;22.90;47.00;;;;;;4999204;28;46113;-63
2023/04/18 08:57:15;;;;;;;;;;;22.90;47.00;;;;;;4988699;28;45965;-63
2023/04/18 08:59:44;;;;;;;;;;;23.00;47.00;;;;;;4993051;28;45516;-63
2023/04/18 09:02:10;;;;;;;;;;;23.00;47.00;;;;;;4968625;28;44844;-62
2023/04/18 09:04:36;;;;;;;;;;;23.00;46.90;;;;;;4961803;28;46120;-63
2023/04/18 09:07:02;;;;;;;;;;;23.00;46.90;;;;;;4995376;28;45238;-64
2023/04/18 09:09:38;;;;;;;;;;;23.10;46.90;;;;;;4988753;28;44705;-62
2023/04/18 09:12:06;;;;;;;;;;;23.10;46.90;;;;;;4984460;28;45365;-62
2023/04/18 09:14:32;;;;;;;;;;;23.10;46.90;;;;;;4981723;28;46171;-62
2023/04/18 09:16:59;;;;;;;;;;;23.20;46.90;;;;;;4984167;28;45442;-62
2023/04/18 09:19:24;;;;;;;;;;;23.20;46.80;;;;;;4996829;28;45084;-62
2023/04/18 09:21:57;;;;;;;;;;;23.20;46.80;;;;;;4987925;28;45466;-62
2023/04/18 09:24:23;;;;;;;;;;;23.20;46.80;;;;;;4997404;28;46041;-62
2023/04/18 09:26:52;;;;;;;;;;;23.30;46.80;;;;;;4985516;28;45223;-58
2023/04/18 09:29:21;;;;;;;;;;;23.30;46.70;;;;;;4981616;28;45309;-61
2023/04/18 09:31:53;;;;;;;;;;;23.30;46.70;;;;;;4984812;28;45301;-61
2023/04/18 09:34:19;;;;;;;;;;;23.40;46.70;;;;;;4991961;28;46130;-61
2023/04/18 09:36:44;;;;;;;;;;;23.40;46.70;;;;;;4959689;28;45334;-62
2023/04/18 09:39:11;;;;;;;;;;;23.40;47.10;;;;;;4980478;28;45232;-61
2023/04/18 09:41:36;;;;;;;;;;;23.50;46.70;;;;;;4966877;28;45161;-61
2023/04/18 09:44:10;;;;;;;;;;;23.50;46.60;;;;;;4968168;28;45893;-61
2023/04/18 09:46:35;;;;;;;;;;;23.50;46.60;;;;;;4987229;28;45621;-61
2023/04/18 09:49:01;;;;;;;;;;;23.50;46.60;;;;;;4992976;28;45029;-61
2023/04/18 09:51:26;;;;;;;;;;;23.60;46.70;;;;;;4973074;28;44993;-57
2023/04/18 09:53:52;;;;;;;;;;;23.50;46.60;;;;;;4993556;28;46025;-61
2023/04/18 09:56:18;;;;;;;;;;;23.50;46.70;;;;;;4968587;28;45318;-61
2023/04/18 09:58:44;;;;;;;;;;;23.40;46.80;;;;;;5004417;28;44769;-60
2023/04/18 10:01:12;;;;;;;;;;;23.40;46.90;;;;;;4972884;28;45171;-62
2023/04/18 10:03:42;;;;;;;;;;;23.30;47.10;;;;;;4984947;28;46032;-60
2023/04/18 10:06:07;;;;;;;;;;;23.20;47.20;;;;;;4974051;28;45321;-61
2023/04/18 10:08:32;;;;;;;;;;;23.20;47.40;;;;;;4995108;28;45345;-61
2023/04/18 10:10:58;;;;;;;;;;;23.10;47.50;;;;;;4970550;28;45679;-60
2023/04/18 10:13:24;;;;;;;;;;;23.00;47.50;;;;;;4995597;28;46067;-60
2023/04/18 10:15:51;;;;;;;;;;;23.00;47.60;;;;;;4972158;28;45286;-60
2023/04/18 10:18:16;;;;;;;;;;;23.00;47.70;;;;;;4973039;28;45158;-62
2023/04/18 10:20:43;;;;;;;;;;;22.90;47.70;;;;;;4972109;28;45202;-61
2023/04/18 10:23:27;;;;;;;;;;;22.80;47.80;;;;;;4999067;28;46233;-59
2023/04/18 10:25:53;;;;;;;;;;;22.80;47.90;;;;;;4990986;28;45356;-60
2023/04/18 10:28:19;;;;;;;;;;;22.70;47.90;;;;;;4998639;28;45313;-61
2023/04/18 10:30:48;;;;;;;;;;;22.70;48.00;;;;;;4987314;28;45206;-59
2023/04/18 10:33:26;;;;;;;;;;;22.60;48.10;;;;;;4996828;28;46189;-60
2023/04/18 10:35:55;;;;;;;;;;;22.60;48.20;;;;;;4987766;28;45326;-61
2023/04/18 10:38:21;;;;;;;;;;;22.60;48.30;;;;;;4970570;28;45346;-59
2023/04/18 10:40:47;;;;;;;;;;;22.50;48.30;;;;;;4989720;28;45007;-59
2023/04/18 10:43:12;;;;;;;;;;;22.40;48.40;;;;;;4998437;28;46962;-61
2023/04/18 10:45:38;;;;;;;;;;;22.40;48.40;;;;;;4991811;28;45996;-62
2023/04/18 10:48:23;;;;;;;;;;;22.40;48.50;;;;;;4990503;28;45326;-61
2023/04/18 10:51:07;;;;;;;;;;;22.30;48.50;;;;;;4991304;28;44864;-61
2023/04/18 10:53:33;;;;;;;;;;;22.30;48.60;;;;;;4994196;28;47074;-61
2023/04/18 10:55:58;;;;;;;;;;;22.20;48.70;;;;;;4986458;28;45847;-60
2023/04/18 10:58:24;;;;;;;;;;;22.20;48.50;;;;;;4996569;28;45629;-55
2023/04/18 11:00:49;;;;;;;;;;;22.20;48.60;;;;;;4969117;28;44780;-61
2023/04/18 11:03:15;;;;;;;;;;;22.20;48.60;;;;;;4979138;28;46834;-61
2023/04/18 11:05:40;;;;;;;;;;;22.10;48.70;;;;;;4984309;28;45295;-60
2023/04/18 11:08:20;;;;;;;;;;;22.10;48.70;;;;;;4980062;28;45050;-61
2023/04/18 11:10:55;;;;;;;;;;;22.10;48.70;;;;;;4988525;28;45645;-60
2023/04/18 11:13:20;;;;;;;;;;;22.10;48.80;;;;;;4994126;28;46188;-61
2023/04/18 11:15:46;;;;;;;;;;;22.10;48.80;;;;;;4990223;28;44915;-61
2023/04/18 11:18:11;;;;;;;;;;;22.00;48.80;;;;;;4970647;28;45211;-59
2023/04/18 11:20:37;;;;;;;;;;;22.00;48.90;;;;;;4989898;28;45411;-59
2023/04/18 11:23:02;;;;;;;;;;;22.00;49.00;;;;;;5002096;28;46349;-61
2023/04/18 11:25:33;;;;;;;;;;;21.90;49.00;;;;;;4990426;28;44971;-61
2023/04/18 11:27:59;;;;;;;;;;;21.90;49.10;;;;;;4984620;28;45197;-60
2023/04/18 11:30:25;;;;;;;;;;;21.90;49.20;;;;;;4971269;28;46137;-61
2023/04/18 11:32:51;;;;;;;;;;;21.80;49.20;;;;;;4969387;28;45454;-60
2023/04/18 11:35:16;;;;;;;;;;;21.80;49.30;;;;;;4997758;28;45331;-59
2023/04/18 11:37:44;;;;;;;;;;;21.80;49.30;;;;;;4994931;28;45330;-60
2023/04/18 11:40:09;;;;;;;;;;;21.80;49.40;;;;;;4982049;28;45629;-61
2023/04/18 11:42:36;;;;;;;;;;;21.80;49.50;;;;;;4994076;28;45990;-60
2023/04/18 11:45:02;;;;;;;;;;;21.70;49.50;;;;;;4996493;28;45325;-61
2023/04/18 11:47:28;;;;;;;;;;;21.70;49.60;;;;;;4989072;28;45249;-60
2023/04/18 11:49:54;;;;;;;;;;;21.70;49.60;;;;;;4989957;28;45224;-59
2023/04/18 11:52:19;;;;;;;;;;;21.70;49.70;;;;;;4987841;28;45828;-60
2023/04/18 11:54:45;;;;;;;;;;;21.70;49.70;;;;;;4958122;28;45363;-61
2023/04/18 11:57:29;;;;;;;;;;;21.60;49.70;;;;;;4992185;28;44681;-60
2023/04/18 11:59:55;;;;;;;;;;;21.60;49.70;;;;;;4992691;28;45537;-58
2023/04/18 12:02:21;;;;;;;;;;;21.60;49.80;;;;;;4986538;28;46058;-60
2023/04/18 12:04:51;;;;;;;;;;;21.60;49.90;;;;;;4994990;28;44677;-61
2023/04/18 12:07:33;;;;;;;;;;;21.60;49.90;;;;;;4993106;28;45522;-61
2023/04/18 12:09:59;;;;;;;;;;;21.60;50.00;;;;;;4981712;28;45329;-60
2023/04/18 12:12:25;;;;;;;;;;;21.50;50.00;;;;;;4984712;28;45942;-58
2023/04/18 12:15:00;;;;;;;;;;;21.50;50.00;;;;;;4989555;28;45266;-61
2023/04/18 12:17:26;;;;;;;;;;;21.50;50.10;;;;;;4983836;28;45146;-61
2023/04/18 12:19:54;;;;;;;;;;;21.50;50.10;;;;;;4989478;28;45256;-62
2023/04/18 12:22:24;;;;;;;;;;;21.50;50.20;;;;;;4965572;28;46250;-63
2023/04/18 12:25:09;;;;;;;;;;;21.40;50.20;;;;;;4973533;28;44986;-61
2023/04/18 12:27:53;;;;;;;;;;;21.40;50.30;;;;;;4991419;28;45828;-60
2023/04/18 12:30:20;;;;;;;;;;;21.40;50.30;;;;;;4966281;28;45509;-61
2023/04/18 12:32:50;;;;;;;;;;;21.40;50.90;;;;;;4983726;28;45593;-61
2023/04/18 12:35:16;;;;;;;;;;;21.40;50.30;;;;;;4980063;28;45443;-61
2023/04/18 12:37:42;;;;;;;;;;;21.30;50.30;;;;;;4985054;28;45531;-60
2023/04/18 12:40:08;;;;;;;;;;;21.30;50.40;;;;;;4983498;28;45313;-61
2023/04/18 12:42:33;;;;;;;;;;;21.30;50.40;;;;;;4986318;28;47171;-61
2023/04/18 12:44:59;;;;;;;;;;;21.30;50.40;;;;;;4987236;28;44738;-61
2023/04/18 12:47:24;;;;;;;;;;;21.30;50.40;;;;;;4984248;28;45234;-61
2023/04/18 12:49:50;;;;;;;;;;;21.30;50.50;;;;;;4987695;28;46259;-60
2023/04/18 12:52:15;;;;;;;;;;;21.30;50.50;;;;;;4983561;28;45848;-58
2023/04/18 12:54:41;;;;;;;;;;;21.30;50.50;;;;;;4989806;28;46080;-59
2023/04/18 12:57:06;;;;;;;;;;;21.20;50.50;;;;;;4985627;28;45299;-61
2023/04/18 12:59:32;;;;;;;;;;;21.20;50.60;;;;;;4993386;28;45278;-60
2023/04/18 13:01:58;;;;;;;;;;;21.20;50.60;;;;;;4976653;28;45279;-62
2023/04/18 13:04:24;;;;;;;;;;;21.20;50.60;;;;;;4989240;28;44781;-61
2023/04/18 13:06:49;;;;;;;;;;;21.20;50.60;;;;;;4984429;28;45379;-59
2023/04/18 13:09:15;;;;;;;;;;;21.20;50.70;;;;;;4990851;28;45243;-58
2023/04/18 13:11:41;;;;;;;;;;;21.20;50.70;;;;;;4984723;28;46215;-60
2023/04/18 13:14:06;;;;;;;;;;;21.20;50.70;;;;;;4989770;28;45311;-59
2023/04/18 13:16:32;;;;;;;;;;;21.20;50.80;;;;;;4979805;28;45282;-55
2023/04/18 13:18:57;;;;;;;;;;;21.10;50.70;;;;;;4991073;28;45127;-59
2023/04/18 13:21:24;;;;;;;;;;;21.10;50.70;;;;;;4984927;28;45918;-59
2023/04/18 13:23:50;;;;;;;;;;;21.20;50.80;;;;;;4986884;28;45313;-59
2023/04/18 13:26:15;;;;;;;;;;;21.10;50.80;;;;;;4985879;28;44703;-60
2023/04/18 13:28:41;;;;;;;;;;;21.10;50.80;;;;;;4983538;28;45540;-61
2023/04/18 13:31:06;;;;;;;;;;;21.10;50.80;;;;;;4980236;28;45974;-61
2023/04/18 13:33:31;;;;;;;;;;;21.10;50.80;;;;;;4969066;28;44713;-61
2023/04/18 13:35:57;;;;;;;;;;;21.10;50.90;;;;;;4985018;28;45515;-60
2023/04/18 13:38:22;;;;;;;;;;;21.10;50.90;;;;;;4989605;28;44892;-60
2023/04/18 13:40:48;;;;;;;;;;;21.10;50.90;;;;;;4968511;28;45948;-61
2023/04/18 13:43:14;;;;;;;;;;;21.00;50.90;;;;;;4988654;28;45350;-60
2023/04/18 13:45:40;;;;;;;;;;;21.00;50.90;;;;;;4979841;28;45322;-65
2023/04/18 13:48:05;;;;;;;;;;;21.00;50.90;;;;;;4991269;28;45769;-60
2023/04/18 13:50:31;;;;;;;;;;;21.00;51.00;;;;;;4986068;28;46219;-59
2023/04/18 13:52:56;;;;;;;;;;;21.00;51.00;;;;;;4992166;28;45189;-60
2023/04/18 13:55:22;;;;;;;;;;;21.00;51.00;;;;;;4984810;28;45313;-60
2023/04/18 13:57:47;;;;;;;;;;;21.00;51.00;;;;;;4980054;28;45596;-61
2023/04/18 14:00:13;;;;;;;;;;;21.00;51.00;;;;;;4986232;28;45253;-65
2023/04/18 14:02:39;;;;;;;;;;;20.90;51.00;;;;;;4987745;28;45247;-60
2023/04/18 14:05:05;;;;;;;;;;;21.00;51.10;;;;;;4985012;28;45542;-60
2023/04/18 14:07:30;;;;;;;;;;;20.90;51.00;;;;;;4989183;28;45536;-59
2023/04/18 14:09:56;;;;;;;;;;;20.90;51.10;;;;;;4992142;28;45947;-61
2023/04/18 14:12:21;;;;;;;;;;;20.90;51.00;;;;;;4988849;28;45463;-60
2023/04/18 14:14:47;;;;;;;;;;;20.90;51.10;;;;;;4990312;28;45376;-61
2023/04/18 14:17:12;;;;;;;;;;;20.90;51.10;;;;;;4983479;28;45839;-61
2023/04/18 14:19:38;;;;;;;;;;;20.90;51.10;;;;;;4994753;28;46101;-59
2023/04/18 14:22:03;;;;;;;;;;;20.90;51.10;;;;;;4980504;28;45014;-60
2023/04/18 14:24:29;;;;;;;;;;;20.90;51.10;;;;;;4974409;28;46020;-59
2023/04/18 14:26:54;;;;;;;;;;;20.90;51.20;;;;;;4985655;28;45584;-60
2023/04/18 14:29:19;;;;;;;;;;;20.80;51.10;;;;;;4993430;28;45983;-60
2023/04/18 14:31:45;;;;;;;;;;;20.80;51.20;;;;;;4979754;28;45206;-60
2023/04/18 14:34:10;;;;;;;;;;;20.80;51.20;;;;;;4990433;28;45570;-60
2023/04/18 14:36:36;;;;;;;;;;;20.80;51.20;;;;;;4985991;28;45392;-59
2023/04/18 14:39:02;;;;;;;;;;;20.80;51.20;;;;;;4988835;28;46281;-61
2023/04/18 14:41:27;;;;;;;;;;;20.80;51.20;;;;;;4991017;28;44973;-61
2023/04/18 14:43:53;;;;;;;;;;;20.80;51.20;;;;;;4991597;28;45288;-57
2023/04/18 14:46:19;;;;;;;;;;;20.80;51.30;;;;;;4982276;28;45630;-60
2023/04/18 14:48:47;;;;;;;;;;;20.80;51.30;;;;;;4974112;28;46210;-61
2023/04/18 14:51:13;;;;;;;;;;;20.80;51.30;;;;;;4971218;28;45263;-61
2023/04/18 14:53:39;;;;;;;;;;;20.80;51.30;;;;;;4975286;28;45273;-60
2023/04/18 14:56:04;;;;;;;;;;;20.80;51.30;;;;;;4987872;28;45820;-61
2023/04/18 14:58:30;;;;;;;;;;;20.80;51.90;;;;;;4992411;28;45928;-61
2023/04/18 15:00:55;;;;;;;;;;;20.80;51.40;;;;;;4983055;28;46867;-61
2023/04/18 15:03:21;;;;;;;;;;;20.70;51.30;;;;;;4991640;28;45347;-61
2023/04/18 15:05:47;;;;;;;;;;;20.70;51.40;;;;;;4985388;28;45298;-61
2023/04/18 15:08:13;;;;;;;;;;;20.70;51.40;;;;;;4991421;28;45306;-61
2023/04/18 15:10:39;;;;;;;;;;;20.70;51.40;;;;;;4987876;28;45238;-61
2023/04/18 15:13:05;;;;;;;;;;;20.70;51.60;;;;;;4989171;28;44731;-60
2023/04/18 15:15:34;;;;;;;;;;;20.60;51.50;;;;;;4986701;28;45937;-59
2023/04/18 15:17:59;;;;;;;;;;;20.60;51.50;;;;;;4980208;28;45862;-62
2023/04/18 15:20:25;;;;;;;;;;;20.60;51.50;;;;;;4969290;28;45268;-58
2023/04/18 15:22:51;;;;;;;;;;;20.60;51.50;;;;;;4990502;28;45350;-60
2023/04/18 15:25:16;;;;;;;;;;;20.60;51.60;;;;;;4988596;28;45373;-61
2023/04/18 15:27:42;;;;;;;;;;;20.50;51.50;;;;;;4992822;28;46032;-59
2023/04/18 15:30:09;;;;;;;;;;;20.60;51.60;;;;;;4986714;28;45285;-59
2023/04/18 15:32:35;;;;;;;;;;;20.50;51.50;;;;;;4984888;28;45378;-60
2023/04/18 15:35:01;;;;;;;;;;;20.50;51.50;;;;;;4985040;28;45221;-60
2023/04/18 15:37:27;;;;;;;;;;;20.50;51.60;;;;;;4970295;28;46459;-60
2023/04/18 15:39:53;;;;;;;;;;;20.50;51.60;;;;;;4965636;28;45818;-62
2023/04/18 15:42:18;;;;;;;;;;;20.50;51.60;;;;;;4984859;28;45462;-61
2023/04/18 15:44:44;;;;;;;;;;;20.50;51.60;;;;;;4986860;28;44987;-61
2023/04/18 15:47:09;;;;;;;;;;;20.50;51.60;;;;;;4975996;28;46537;-62
2023/04/18 15:49:35;;;;;;;;;;;20.40;51.70;;;;;;4986666;28;45310;-61
2023/04/18 15:52:01;;;;;;;;;;;20.40;51.70;;;;;;4979848;28;45190;-61
2023/04/18 15:54:26;;;;;;;;;;;20.40;51.70;;;;;;4967755;28;44827;-62
2023/04/18 15:56:52;;;;;;;;;;;20.40;51.70;;;;;;4951301;28;46925;-61
2023/04/18 15:59:17;;;;;;;;;;;20.30;51.70;;;;;;4990036;28;45274;-60
2023/04/18 16:01:43;;;;;;;;;;;20.30;51.70;;;;;;4955613;28;44977;-56
2023/04/18 16:04:09;;;;;;;;;;;20.30;51.80;;;;;;4957434;28;45270;-59
2023/04/18 16:06:36;;;;;;;;;;;20.30;51.90;;;;;;4970905;28;46382;-60
2023/04/18 16:09:02;;;;;;;;;;;20.30;51.90;;;;;;4973016;28;45252;-60
2023/04/18 16:11:28;;;;;;;;;;;20.30;51.90;;;;;;4976349;28;46045;-61
2023/04/18 16:13:53;;;;;;;;;;;20.20;51.90;;;;;;4980275;28;45277;-61
2023/04/18 16:16:19;;;;;;;;;;;20.20;52.00;;;;;;4968286;28;46354;-60
2023/04/18 16:18:44;;;;;;;;;;;20.20;52.00;;;;;;4975647;28;45223;-58
2023/04/18 16:21:13;;;;;;;;;;;20.20;52.00;;;;;;4970509;28;45554;-59
2023/04/18 16:23:38;;;;;;;;;;;20.10;52.00;;;;;;4947389;28;45759;-62
2023/04/18 16:26:04;;;;;;;;;;;20.10;52.00;;;;;;4968787;28;45907;-61
2023/04/18 16:28:30;;;;;;;;;;;20.10;52.10;;;;;;4981782;28;45350;-60
2023/04/18 16:30:55;;;;;;;;;;;20.10;52.10;;;;;;4967602;28;45286;-62
2023/04/18 16:33:24;;;;;;;;;;;20.10;52.20;;;;;;4967423;28;46494;-60
2023/04/18 16:35:50;;;;;;;;;;;20.10;52.20;;;;;;4969002;28;46234;-62
2023/04/18 16:38:16;;;;;;;;;;;20.00;52.30;;;;;;4976389;28;45266;-61
2023/04/18 16:40:41;;;;;;;;;;;20.00;52.20;;;;;;4974364;28;45270;-60
2023/04/18 16:43:07;;;;;;;;;;;20.00;52.20;;;;;;4979629;28;45940;-61
2023/04/18 16:45:32;;;;;;;;;;;20.00;52.40;;;;;;4966637;28;46171;-61
2023/04/18 16:47:58;;;;;;;;;;;20.00;52.20;;;;;;4973122;28;45031;-62